Flight Track Log - Related Links

Times and Time Zones

All times are in EDT time to prevent confusion due to time zone crossing. See the AWE1693 flight status page for this flight to view local times or setup timezone preferences in your user account.

Time Position Orientation Groundspeed Altitude Reporting Facility
EDT Latitude Longitude Course Direction KTS MPH feet Rate Location/Type
Thu 12:43:11 PM 41.9333 -87.9167 180° South 188 216 1,700  Level Chicago TRACON
Thu 12:44:17 PM 41.8833 -87.9167 180° South 220 253 3,900 1,956 Climbing Chicago TRACON
Thu 12:45:26 PM 41.8006 -87.9069 175° South 261 300 6,100 2,336 Climbing Chicago Center
Thu 12:46:28 PM 41.7136 -87.9011 177° South 287 330 9,000 2,661 Climbing Chicago Center
Thu 12:47:30 PM 41.6225 -87.8925 176° South 307 353 11,600 2,371 Climbing Chicago Center
Thu 12:48:32 PM 41.5358 -87.8850 176° South 314 361 13,900 2,256 Climbing Chicago Center
Thu 12:49:35 PM 41.4378 -87.8789 177° South 325 374 16,300 2,016 Climbing Chicago Center
Thu 12:50:37 PM 41.3439 -87.8833 182° South 334 384 18,100 1,387 Climbing Chicago Center
Thu 12:52:41 PM 41.1519 -87.8906 180° South 364 419 20,600 1,129 Climbing Chicago Center
Thu 12:53:43 PM 41.0419 -87.8872 179° South 390 449 21,600 1,356 Climbing Chicago Center
Thu 12:55:38 PM 40.7919 -87.8781 178° South 431 496 24,600 1,305 Climbing Indianapolis Center
Thu 12:57:42 PM 40.5439 -87.8711 180° South 446 513 26,800 1,161 Climbing Indianapolis Center
Thu 12:58:44 PM 40.4128 -87.8664 178° South 465 535 28,200 1,065 Climbing Indianapolis Center
Thu 12:59:46 PM 40.2858 -87.8614 178° South 464 534 29,000 387 Climbing Indianapolis Center
Thu 01:00:48 PM 40.1531 -87.8581 179° South 471 542 29,000  Level Indianapolis Center
Thu 01:01:50 PM 39.9978 -87.8494 178° South 471 542 29,000  Level Indianapolis Center
Thu 01:02:52 PM 39.8639 -87.8433 178° South 476 548 29,000  Level Indianapolis Center
Thu 01:03:53 PM 39.7322 -87.8125 170° South 479 551 29,000  Level Indianapolis Center
Thu 01:06:09 PM 39.4458 -87.7186 166° South 487 560 29,000  Level Chicago Center
Thu 01:06:59 PM 39.3261 -87.6767 165° South 487 560 29,000  Level Indianapolis Center
Thu 01:08:01 PM 39.1956 -87.6339 166° South 486 559 29,000  Level Indianapolis Center
Thu 01:09:03 PM 39.0633 -87.5928 166° South 486 559 29,000 613 Level Indianapolis Center
Thu 01:11:07 PM 38.7792 -87.5003 166° South 479 551 30,900 895 Climbing Indianapolis Center
Thu 01:13:11 PM 38.5267 -87.4192 166° South 470 541 32,700 677 Climbing Indianapolis Center
Thu 01:14:13 PM 38.4017 -87.3797 166° South 470 541 33,000 97 Climbing Indianapolis Center
Thu 01:16:16 PM 38.1347 -87.2964 166° South 465 535 33,000  Level Memphis Center
Thu 01:17:19 PM 38.0064 -87.2550 166° South 464 534 33,000  Level Indianapolis Center
Thu 01:18:22 PM 37.8828 -87.2161 166° South 462 532 33,000  Level Indianapolis Center
Thu 01:20:26 PM 37.6322 -87.1381 166° South 462 532 33,000  Level Indianapolis Center
Thu 01:22:28 PM 37.3581 -87.0531 166° South 462 532 33,000  Level Memphis Center
Thu 01:23:30 PM 37.2333 -87.0133 166° South 462 532 33,000  Level Memphis Center
Thu 01:24:32 PM 37.1083 -86.9756 166° South 461 531 33,000  Level Memphis Center
Thu 01:25:34 PM 36.9828 -86.9375 166° South 460 529 33,000  Level Memphis Center
Thu 01:27:40 PM 36.7478 -86.8025 155° Southeast 466 536 33,000  Level Indianapolis Center
Thu 01:29:43 PM 36.5206 -86.6208 145° Southeast 474 545 33,000  Level Memphis Center
Thu 01:30:45 PM 36.4056 -86.5311 148° Southeast 475 547 33,000  Level Memphis Center
Thu 01:31:47 PM 36.2733 -86.4275 148° Southeast 475 547 33,000  Level Memphis Center
Thu 01:32:49 PM 36.1611 -86.3411 148° Southeast 473 544 33,000  Level Memphis Center
Thu 01:33:51 PM 36.0486 -86.2536 148° Southeast 472 543 33,000  Level Memphis Center
Thu 01:34:53 PM 35.9386 -86.1686 148° Southeast 468 539 33,000  Level Memphis Center
Thu 01:36:41 PM 35.7339 -86.0086 148° Southeast 455 524 33,000  Level Atlanta Center
Thu 01:37:34 PM 35.6503 -85.9461 149° Southeast 469 540 33,000  Level Indianapolis Center
Thu 01:39:02 PM 35.4756 -85.8114 148° Southeast 469 540 33,000  Level Memphis Center
Thu 01:41:06 PM 35.2567 -85.6444 148° Southeast 468 539 33,000  Level Memphis Center
Thu 01:42:08 PM 35.1478 -85.5611 148° Southeast 466 536 33,000  Level Memphis Center
Thu 01:43:41 PM 34.9611 -85.4428 153° Southeast 460 529 33,000  Level Atlanta Center
Thu 01:44:12 PM 34.9211 -85.4186 154° Southeast 461 531 33,000  Level Memphis Center
Thu 01:45:41 PM 34.7269 -85.3125 156° South 460 529 33,000  Level Atlanta Center
Thu 01:46:41 PM 34.6106 -85.2553 158° South 460 529 33,000  Level Atlanta Center
Thu 01:50:41 PM 34.1453 -85.0053 151° Southeast 455 524 33,000  Level Atlanta Center
Thu 01:51:41 PM 34.0289 -84.9461 157° South 455 524 33,000  Level Atlanta Center
Thu 01:53:41 PM 33.7958 -84.8186 150° Southeast 460 529 33,000  Level Atlanta Center
Thu 01:55:41 PM 33.5733 -84.7044 157° South 460 529 33,000  Level Atlanta Center
Thu 01:56:00 PM 33.7818 -84.5431 151° Southeast  Level FlightAware Approximate
Thu 01:56:41 PM 33.4567 -84.6414 156° South 460 529 33,000  Level Atlanta Center
Thu 01:57:41 PM 33.3400 -84.5833 157° South 454 522 33,000  Level Atlanta Center
Thu 01:58:41 PM 33.2236 -84.5206 156° South 454 522 33,000  Level Atlanta Center
Thu 01:59:41 PM 33.1069 -84.4578 156° South 454 522 33,000  Level Atlanta Center
Thu 02:00:41 PM 32.9900 -84.4006 158° South 454 522 33,000  Level Atlanta Center
Thu 02:01:41 PM 32.8756 -84.3381 155° Southeast 454 522 33,000  Level Atlanta Center
Thu 02:03:00 PM 32.7416 -84.2483 151° Southeast  Level FlightAware Approximate
Thu 02:03:41 PM 32.6336 -84.2089 151° Southeast 454 522 33,000  Level Atlanta Center
Thu 02:04:41 PM 32.5250 -84.1375 151° Southeast 449 517 33,000  Level Atlanta Center
Thu 02:05:41 PM 32.4167 -84.0611 149° Southeast 449 517 33,000  Level Atlanta Center
Thu 02:06:41 PM 32.3081 -83.9847 149° Southeast 459 528 33,000  Level Atlanta Center
Thu 02:07:41 PM 32.1975 -83.9111 151° Southeast 459 528 33,000  Level Atlanta Center
Thu 02:08:41 PM 32.0844 -83.8353 150° Southeast 459 528 33,000  Level Atlanta Center
Thu 02:09:28 PM 32.0006 -83.7769 149° Southeast 459 528 33,000  Level Jacksonville Center
Thu 02:10:28 PM 31.9008 -83.7075 149° Southeast 454 522 33,000  Level Jacksonville Center
Thu 02:12:27 PM 31.6719 -83.5614 151° Southeast 462 532 33,000  Level Jacksonville Center
Thu 02:13:28 PM 31.5511 -83.5117 161° South 467 537 33,000  Level Jacksonville Center
Thu 02:14:27 PM 31.4303 -83.4672 163° South 462 532 33,000  Level Jacksonville Center
Thu 02:15:27 PM 31.3094 -83.4228 163° South 462 532 33,000 -350 Level Jacksonville Center
Thu 02:16:27 PM 31.1906 -83.3733 160° South 462 532 32,300 -1,033 Descending Jacksonville Center
Thu 02:18:27 PM 30.9361 -83.2825 163° South 457 526 29,900 -1,225 Descending Jacksonville Center
Thu 02:20:27 PM 30.6964 -83.1969 151° Southeast 452 520 27,400 -1,233 Descending Jacksonville Center
Thu 02:21:27 PM 30.5775 -83.1458 160° South 452 520 26,200 -1,167 Descending Jacksonville Center
Thu 02:23:27 PM 30.3500 -83.0275 151° Southeast 452 520 23,900 -1,160 Descending Jacksonville Center
Thu 02:24:28 PM 30.2394 -82.9744 157° South 447 514 22,700 -942 Descending Jacksonville Center
Thu 02:25:28 PM 30.1369 -82.9239 157° South 426 490 22,000 -857 Descending Jacksonville Center
Thu 02:26:27 PM 30.0431 -82.8758 156° South 402 463 21,000 -1,250 Descending Jacksonville Center
Thu 02:27:28 PM 29.9450 -82.8303 158° South 382 440 19,500 -992 Descending Jacksonville Center
Thu 02:28:28 PM 29.8531 -82.7800 155° Southeast 369 425 19,000 -250 Descending Jacksonville Center
Thu 02:29:28 PM 29.7736 -82.7108 143° Southeast 364 419 19,000 -50 Level Jacksonville Center
Thu 02:30:28 PM 29.6922 -82.6486 146° Southeast 364 419 18,900 -49 Descending Jacksonville Center
Thu 02:31:30 PM 29.6022 -82.5869 149° Southeast 364 419 18,900 45 Level Jacksonville Center
Thu 02:32:40 PM 29.4997 -82.5131 148° Southeast 364 419 19,000 -369 Climbing Jacksonville Center
Thu 02:33:40 PM 29.4119 -82.4564 151° Southeast 364 419 18,100 -1,144 Descending Jacksonville Center
Thu 02:37:39 PM 29.0875 -82.2486 114° Southeast 340 391 13,300 -1,180 Descending Jacksonville Center
Thu 02:38:40 PM 29.0058 -82.2017 153° Southeast 340 391 12,200 -829 Descending Jacksonville Center
Thu 02:40:40 PM 28.8736 -82.0675 126° Southeast 324 373 10,800 -433 Descending Jacksonville Center
Thu 02:41:40 PM 28.8519 -81.9753 105° East 296 341 10,900 50 Climbing Jacksonville Center
Thu 02:42:00 PM 28.7292 -81.6585 120° Southeast  Level FlightAware Approximate
Thu 02:42:40 PM 28.8283 -81.8783 106° East 291 335 10,900  Level Jacksonville Center
Thu 02:43:00 PM 28.6652 -81.5463 114° Southeast  Level FlightAware Approximate
Thu 02:44:01 PM 28.8000 -81.7500 104° East 297 342 9,000  Level Orlando TRACON
Thu 02:45:01 PM 28.7833 -81.6500 101° East 292 336 7,700 -1,150 Descending Orlando TRACON
Thu 02:46:01 PM 28.7667 -81.5667 103° East 286 329 6,700 -850 Descending Orlando TRACON
Thu 02:47:01 PM 28.7500 -81.4833 103° East 281 323 6,000 -1,039 Descending Orlando TRACON
Thu 02:48:08 PM 28.7167 -81.3833 111° Southeast 281 323 4,500 -1,286 Descending Orlando TRACON
Thu 02:48:39 PM 28.7000 -81.3636 134° Southeast 274 315 3,900 -667 Descending Jacksonville Center
Thu 02:51:08 PM 28.5500 -81.3333 180° South 175 201 2,500 -689 Descending Orlando TRACON
Thu 02:52:08 PM 28.5167 -81.3333 180° South 145 167 1,500 -909 Descending Orlando TRACON
Thu 02:53:20 PM 28.4667 -81.3333 180° South 136 157 500 -833 Descending Orlando TRACON
Thu 02:55:00 PM 28.4294 -81.3090 180° South  Level Estimated
Thu 03:02:00 PM 28.4294 -81.3090 24° Northeast  Level Estimated
Thu 03:03:00 PM 28.4294 -81.3090 24° Northeast  Level Estimated
Thu 03:04:00 PM 28.4294 -81.3090 24° Northeast  Level Estimated
Thu 03:05:00 PM 28.4294 -81.3090 24° Northeast  Level Estimated

Login

Don't have an account? Register now (free) for customized features, flight alerts, and more!